sensor_id;sensor_type;location;lat;lon;timestamp;pressure;altitude;pressure_sealevel;temperature;humidity
79481;BME280;68944;48.262;14.208;2023-08-07T00:00:52;97750.34;;;14.73;63.34
79481;BME280;68944;48.262;14.208;2023-08-07T00:03:18;97742.63;;;14.72;63.48
79481;BME280;68944;48.262;14.208;2023-08-07T00:05:47;97746.38;;;14.81;62.67
79481;BME280;68944;48.262;14.208;2023-08-07T00:08:13;97759.66;;;14.71;62.68
79481;BME280;68944;48.262;14.208;2023-08-07T00:10:39;97751.19;;;14.79;62.37
79481;BME280;68944;48.262;14.208;2023-08-07T00:13:04;97757.59;;;14.88;62.44
79481;BME280;68944;48.262;14.208;2023-08-07T00:15:30;97755.44;;;14.80;61.96
79481;BME280;68944;48.262;14.208;2023-08-07T00:17:56;97748.72;;;14.72;61.74
79481;BME280;68944;48.262;14.208;2023-08-07T00:20:21;97737.53;;;14.75;61.97
79481;BME280;68944;48.262;14.208;2023-08-07T00:22:47;97739.44;;;14.80;61.79
79481;BME280;68944;48.262;14.208;2023-08-07T00:25:12;97744.25;;;14.83;61.55
79481;BME280;68944;48.262;14.208;2023-08-07T00:27:38;97727.69;;;14.76;61.12
79481;BME280;68944;48.262;14.208;2023-08-07T00:30:03;97737.38;;;14.93;61.31
79481;BME280;68944;48.262;14.208;2023-08-07T00:32:29;97746.16;;;14.93;61.18
79481;BME280;68944;48.262;14.208;2023-08-07T00:34:54;97736.81;;;14.85;61.05
79481;BME280;68944;48.262;14.208;2023-08-07T00:37:20;97723.41;;;14.75;61.08
79481;BME280;68944;48.262;14.208;2023-08-07T00:39:45;97747.16;;;14.82;60.83
79481;BME280;68944;48.262;14.208;2023-08-07T00:42:11;97743.94;;;14.79;61.02
79481;BME280;68944;48.262;14.208;2023-08-07T00:44:36;97732.22;;;14.75;61.29
79481;BME280;68944;48.262;14.208;2023-08-07T00:47:02;97730.34;;;14.76;60.79
79481;BME280;68944;48.262;14.208;2023-08-07T00:49:28;97741.03;;;14.76;60.48
79481;BME280;68944;48.262;14.208;2023-08-07T00:51:54;97742.88;;;14.75;60.08
79481;BME280;68944;48.262;14.208;2023-08-07T00:54:20;97735.50;;;14.88;59.88
79481;BME280;68944;48.262;14.208;2023-08-07T00:56:46;97734.44;;;14.94;59.79
79481;BME280;68944;48.262;14.208;2023-08-07T00:59:15;97742.69;;;14.87;58.96
79481;BME280;68944;48.262;14.208;2023-08-07T01:01:41;97740.50;;;14.84;59.04
79481;BME280;68944;48.262;14.208;2023-08-07T01:04:07;97732.56;;;14.89;59.21
79481;BME280;68944;48.262;14.208;2023-08-07T01:06:32;97734.69;;;14.87;59.15
79481;BME280;68944;48.262;14.208;2023-08-07T01:08:58;97740.78;;;14.83;58.85
79481;BME280;68944;48.262;14.208;2023-08-07T01:19:27;97730.94;;;14.88;58.58
79481;BME280;68944;48.262;14.208;2023-08-07T01:24:32;97724.03;;;14.87;58.77
79481;BME280;68944;48.262;14.208;2023-08-07T01:32:09;97742.72;;;14.93;59.22
79481;BME280;68944;48.262;14.208;2023-08-07T01:34:41;97713.56;;;14.81;59.30
79481;BME280;68944;48.262;14.208;2023-08-07T01:37:08;97734.06;;;14.70;60.02
79481;BME280;68944;48.262;14.208;2023-08-07T01:39:36;97758.06;;;14.75;60.23
79481;BME280;68944;48.262;14.208;2023-08-07T01:42:03;97735.19;;;14.79;60.58
79481;BME280;68944;48.262;14.208;2023-08-07T01:44:30;97759.16;;;14.74;60.63
79481;BME280;68944;48.262;14.208;2023-08-07T01:46:56;97757.00;;;14.71;60.42
79481;BME280;68944;48.262;14.208;2023-08-07T01:49:21;97744.91;;;14.52;60.75
79481;BME280;68944;48.262;14.208;2023-08-07T01:51:47;97748.66;;;14.56;61.06
79481;BME280;68944;48.262;14.208;2023-08-07T01:54:12;97748.94;;;14.55;60.97
79481;BME280;68944;48.262;14.208;2023-08-07T01:56:37;97738.28;;;14.55;61.09
79481;BME280;68944;48.262;14.208;2023-08-07T01:59:03;97744.69;;;14.59;61.34
79481;BME280;68944;48.262;14.208;2023-08-07T02:01:28;97759.88;;;14.59;61.09
79481;BME280;68944;48.262;14.208;2023-08-07T02:03:54;97736.91;;;14.47;61.75
79481;BME280;68944;48.262;14.208;2023-08-07T02:06:19;97743.00;;;14.42;61.93
79481;BME280;68944;48.262;14.208;2023-08-07T02:08:45;97755.56;;;14.47;62.04
79481;BME280;68944;48.262;14.208;2023-08-07T02:11:11;97741.66;;;14.40;62.15
79481;BME280;68944;48.262;14.208;2023-08-07T02:13:36;97748.84;;;14.34;62.73
79481;BME280;68944;48.262;14.208;2023-08-07T02:16:02;97760.84;;;14.37;62.61
79481;BME280;68944;48.262;14.208;2023-08-07T02:18:28;97757.59;;;14.29;62.84
79481;BME280;68944;48.262;14.208;2023-08-07T02:20:53;97744.50;;;14.22;63.36
79481;BME280;68944;48.262;14.208;2023-08-07T02:23:19;97762.31;;;14.17;63.55
79481;BME280;68944;48.262;14.208;2023-08-07T02:25:44;97759.41;;;14.18;63.87
79481;BME280;68944;48.262;14.208;2023-08-07T02:28:11;97749.81;;;14.17;63.83
79481;BME280;68944;48.262;14.208;2023-08-07T02:30:36;97763.94;;;14.18;64.04
79481;BME280;68944;48.262;14.208;2023-08-07T02:33:02;97759.09;;;14.09;64.48
79481;BME280;68944;48.262;14.208;2023-08-07T02:35:27;97750.53;;;14.02;64.47
79481;BME280;68944;48.262;14.208;2023-08-07T02:37:53;97765.00;;;13.79;65.80
79481;BME280;68944;48.262;14.208;2023-08-07T02:40:18;97745.97;;;13.97;65.39
79481;BME280;68944;48.262;14.208;2023-08-07T02:42:44;97758.19;;;13.98;65.62
79481;BME280;68944;48.262;14.208;2023-08-07T02:45:10;97751.56;;;14.01;65.36
79481;BME280;68944;48.262;14.208;2023-08-07T02:47:35;97752.38;;;14.02;65.41
79481;BME280;68944;48.262;14.208;2023-08-07T02:50:01;97744.75;;;13.77;66.71
79481;BME280;68944;48.262;14.208;2023-08-07T02:52:26;97746.91;;;13.81;66.61
79481;BME280;68944;48.262;14.208;2023-08-07T02:54:52;97751.97;;;13.82;66.41
79481;BME280;68944;48.262;14.208;2023-08-07T02:57:17;97761.78;;;13.76;67.32
79481;BME280;68944;48.262;14.208;2023-08-07T02:59:43;97753.06;;;13.86;66.96
79481;BME280;68944;48.262;14.208;2023-08-07T03:02:08;97764.22;;;13.83;67.53
79481;BME280;68944;48.262;14.208;2023-08-07T03:04:34;97768.69;;;13.72;67.42
79481;BME280;68944;48.262;14.208;2023-08-07T03:07:00;97767.94;;;13.54;68.62
79481;BME280;68944;48.262;14.208;2023-08-07T03:09:26;97774.41;;;13.59;68.83
79481;BME280;68944;48.262;14.208;2023-08-07T03:11:52;97777.13;;;13.64;69.19
79481;BME280;68944;48.262;14.208;2023-08-07T03:14:17;97774.34;;;13.53;69.53
79481;BME280;68944;48.262;14.208;2023-08-07T03:16:43;97773.63;;;13.58;69.86
79481;BME280;68944;48.262;14.208;2023-08-07T03:19:09;97771.63;;;13.48;69.86
79481;BME280;68944;48.262;14.208;2023-08-07T03:21:35;97794.97;;;13.41;71.21
79481;BME280;68944;48.262;14.208;2023-08-07T03:24:01;97796.53;;;13.37;71.43
79481;BME280;68944;48.262;14.208;2023-08-07T03:26:26;97805.31;;;13.37;71.34
79481;BME280;68944;48.262;14.208;2023-08-07T03:28:52;97769.25;;;13.19;71.65
79481;BME280;68944;48.262;14.208;2023-08-07T03:31:19;97802.81;;;13.25;71.88
79481;BME280;68944;48.262;14.208;2023-08-07T03:33:46;97805.34;;;13.15;71.89
79481;BME280;68944;48.262;14.208;2023-08-07T03:36:12;97819.50;;;12.76;74.80
79481;BME280;68944;48.262;14.208;2023-08-07T03:38:39;97807.00;;;12.54;74.83
79481;BME280;68944;48.262;14.208;2023-08-07T03:41:05;97820.53;;;12.52;74.84
79481;BME280;68944;48.262;14.208;2023-08-07T03:43:31;97797.59;;;12.46;75.73
79481;BME280;68944;48.262;14.208;2023-08-07T03:45:57;97812.34;;;12.36;75.99
79481;BME280;68944;48.262;14.208;2023-08-07T03:48:22;97820.00;;;12.33;76.11
79481;BME280;68944;48.262;14.208;2023-08-07T03:50:48;97820.25;;;12.14;76.55
79481;BME280;68944;48.262;14.208;2023-08-07T03:53:13;97821.28;;;12.30;76.54
79481;BME280;68944;48.262;14.208;2023-08-07T03:55:43;97811.00;;;12.16;77.21
79481;BME280;68944;48.262;14.208;2023-08-07T03:58:14;97816.41;;;12.22;77.37
79481;BME280;68944;48.262;14.208;2023-08-07T04:00:39;97825.53;;;11.97;77.27
79481;BME280;68944;48.262;14.208;2023-08-07T04:03:05;97817.66;;;11.85;79.50
79481;BME280;68944;48.262;14.208;2023-08-07T04:05:33;97810.88;;;11.77;79.39
79481;BME280;68944;48.262;14.208;2023-08-07T04:07:59;97811.84;;;11.88;79.03
79481;BME280;68944;48.262;14.208;2023-08-07T04:10:24;97817.72;;;11.90;79.44
79481;BME280;68944;48.262;14.208;2023-08-07T04:12:51;97803.72;;;11.94;80.01
79481;BME280;68944;48.262;14.208;2023-08-07T04:15:16;97794.81;;;12.01;78.63
79481;BME280;68944;48.262;14.208;2023-08-07T04:17:42;97800.69;;;12.03;78.39
79481;BME280;68944;48.262;14.208;2023-08-07T04:20:08;97799.06;;;12.02;78.47
79481;BME280;68944;48.262;14.208;2023-08-07T04:22:34;97818.69;;;11.83;78.06
79481;BME280;68944;48.262;14.208;2023-08-07T04:24:59;97794.66;;;11.90;78.80
79481;BME280;68944;48.262;14.208;2023-08-07T04:27:25;97819.91;;;11.93;78.86
79481;BME280;68944;48.262;14.208;2023-08-07T04:29:52;97806.38;;;11.94;78.00
79481;BME280;68944;48.262;14.208;2023-08-07T04:32:18;97808.56;;;11.98;77.61
79481;BME280;68944;48.262;14.208;2023-08-07T04:34:43;97797.38;;;11.95;76.79
79481;BME280;68944;48.262;14.208;2023-08-07T04:37:09;97806.06;;;12.08;76.97
79481;BME280;68944;48.262;14.208;2023-08-07T04:39:35;97798.97;;;11.97;76.91
79481;BME280;68944;48.262;14.208;2023-08-07T04:42:02;97809.75;;;11.90;76.37
79481;BME280;68944;48.262;14.208;2023-08-07T04:44:27;97791.84;;;11.97;76.46
79481;BME280;68944;48.262;14.208;2023-08-07T04:46:53;97789.19;;;11.97;75.76
79481;BME280;68944;48.262;14.208;2023-08-07T04:49:18;97799.31;;;11.83;75.33
79481;BME280;68944;48.262;14.208;2023-08-07T04:51:44;97791.34;;;11.83;75.72
79481;BME280;68944;48.262;14.208;2023-08-07T04:54:09;97815.41;;;11.93;74.97
79481;BME280;68944;48.262;14.208;2023-08-07T04:56:35;97818.84;;;11.94;74.86
79481;BME280;68944;48.262;14.208;2023-08-07T04:59:00;97818.97;;;12.16;74.06
79481;BME280;68944;48.262;14.208;2023-08-07T05:01:27;97822.75;;;12.21;73.51
79481;BME280;68944;48.262;14.208;2023-08-07T05:03:52;97828.38;;;12.24;73.67
79481;BME280;68944;48.262;14.208;2023-08-07T05:06:18;97826.81;;;12.11;73.38
79481;BME280;68944;48.262;14.208;2023-08-07T05:08:44;97832.34;;;12.22;73.48
79481;BME280;68944;48.262;14.208;2023-08-07T05:11:10;97837.41;;;12.23;73.10
79481;BME280;68944;48.262;14.208;2023-08-07T05:13:35;97821.06;;;12.14;73.79
79481;BME280;68944;48.262;14.208;2023-08-07T05:16:01;97834.47;;;12.08;74.23
79481;BME280;68944;48.262;14.208;2023-08-07T05:18:26;97823.22;;;12.17;73.72
79481;BME280;68944;48.262;14.208;2023-08-07T05:20:51;97822.44;;;12.17;73.29
79481;BME280;68944;48.262;14.208;2023-08-07T05:23:17;97826.38;;;12.14;73.42
79481;BME280;68944;48.262;14.208;2023-08-07T05:25:45;97829.59;;;12.16;73.91
79481;BME280;68944;48.262;14.208;2023-08-07T05:28:11;97826.88;;;12.28;73.31
79481;BME280;68944;48.262;14.208;2023-08-07T05:30:37;97823.63;;;12.09;73.13
79481;BME280;68944;48.262;14.208;2023-08-07T05:33:02;97836.97;;;11.80;74.00
79481;BME280;68944;48.262;14.208;2023-08-07T05:35:28;97821.97;;;11.74;74.87
79481;BME280;68944;48.262;14.208;2023-08-07T05:37:53;97884.13;;;11.78;73.95
79481;BME280;68944;48.262;14.208;2023-08-07T05:40:19;97845.00;;;11.85;74.73
79481;BME280;68944;48.262;14.208;2023-08-07T05:42:44;97842.28;;;11.80;75.13
79481;BME280;68944;48.262;14.208;2023-08-07T05:45:10;97847.25;;;11.93;74.18
79481;BME280;68944;48.262;14.208;2023-08-07T05:47:36;97867.38;;;11.89;74.18
79481;BME280;68944;48.262;14.208;2023-08-07T05:50:01;97829.97;;;11.91;74.32
79481;BME280;68944;48.262;14.208;2023-08-07T05:52:27;97848.53;;;11.91;73.91
79481;BME280;68944;48.262;14.208;2023-08-07T05:54:53;97855.88;;;12.01;73.41
79481;BME280;68944;48.262;14.208;2023-08-07T05:57:18;97864.88;;;12.00;73.88
79481;BME280;68944;48.262;14.208;2023-08-07T05:59:44;97867.63;;;12.05;73.62
79481;BME280;68944;48.262;14.208;2023-08-07T06:02:10;97861.91;;;11.96;72.57
79481;BME280;68944;48.262;14.208;2023-08-07T06:04:38;97866.00;;;12.04;73.54
79481;BME280;68944;48.262;14.208;2023-08-07T06:07:05;97859.00;;;11.98;73.23
79481;BME280;68944;48.262;14.208;2023-08-07T06:09:30;97872.69;;;11.89;73.32
79481;BME280;68944;48.262;14.208;2023-08-07T06:11:56;97873.75;;;12.05;72.85
79481;BME280;68944;48.262;14.208;2023-08-07T06:14:21;97867.06;;;12.03;72.11
79481;BME280;68944;48.262;14.208;2023-08-07T06:16:47;97866.91;;;12.27;72.06
79481;BME280;68944;48.262;14.208;2023-08-07T06:19:12;97881.66;;;12.17;72.02
79481;BME280;68944;48.262;14.208;2023-08-07T06:21:38;97898.22;;;12.25;71.51
79481;BME280;68944;48.262;14.208;2023-08-07T06:24:04;97881.50;;;12.24;70.91
79481;BME280;68944;48.262;14.208;2023-08-07T06:26:29;97883.91;;;12.26;71.59
79481;BME280;68944;48.262;14.208;2023-08-07T06:28:55;97888.16;;;12.27;71.48
79481;BME280;68944;48.262;14.208;2023-08-07T06:31:20;97900.03;;;12.19;72.05
79481;BME280;68944;48.262;14.208;2023-08-07T06:33:46;97898.94;;;12.20;71.78
79481;BME280;68944;48.262;14.208;2023-08-07T06:36:11;97910.84;;;12.17;72.23
79481;BME280;68944;48.262;14.208;2023-08-07T06:38:37;97891.97;;;12.14;72.20
79481;BME280;68944;48.262;14.208;2023-08-07T06:41:02;97909.56;;;12.20;72.52
79481;BME280;68944;48.262;14.208;2023-08-07T06:43:28;97915.97;;;12.07;72.57
79481;BME280;68944;48.262;14.208;2023-08-07T06:45:55;97907.25;;;11.94;73.37
79481;BME280;68944;48.262;14.208;2023-08-07T06:48:20;97931.41;;;11.93;73.46
79481;BME280;68944;48.262;14.208;2023-08-07T06:50:47;97929.84;;;11.80;75.01
79481;BME280;68944;48.262;14.208;2023-08-07T06:53:13;97973.94;;;11.69;75.45
79481;BME280;68944;48.262;14.208;2023-08-07T06:55:38;97937.97;;;11.73;76.64
79481;BME280;68944;48.262;14.208;2023-08-07T06:58:04;97944.88;;;11.62;75.84
79481;BME280;68944;48.262;14.208;2023-08-07T07:00:29;97961.50;;;11.69;75.71
79481;BME280;68944;48.262;14.208;2023-08-07T07:02:55;97965.66;;;11.65;76.44
79481;BME280;68944;48.262;14.208;2023-08-07T07:05:21;97960.09;;;11.67;76.04
79481;BME280;68944;48.262;14.208;2023-08-07T07:07:46;97946.00;;;11.78;76.13
79481;BME280;68944;48.262;14.208;2023-08-07T07:10:12;97957.31;;;11.74;74.97
79481;BME280;68944;48.262;14.208;2023-08-07T07:12:37;97953.59;;;11.87;75.20
79481;BME280;68944;48.262;14.208;2023-08-07T07:15:03;97964.66;;;11.83;75.30
79481;BME280;68944;48.262;14.208;2023-08-07T07:17:29;97961.78;;;11.85;74.17
79481;BME280;68944;48.262;14.208;2023-08-07T07:19:54;97971.78;;;11.95;73.81
79481;BME280;68944;48.262;14.208;2023-08-07T07:22:22;97976.28;;;11.94;74.02
79481;BME280;68944;48.262;14.208;2023-08-07T07:24:47;97986.44;;;11.98;74.02
79481;BME280;68944;48.262;14.208;2023-08-07T07:27:13;97980.97;;;12.04;73.22
79481;BME280;68944;48.262;14.208;2023-08-07T07:29:38;97982.50;;;12.12;73.44
79481;BME280;68944;48.262;14.208;2023-08-07T07:32:04;97994.72;;;12.13;72.33
79481;BME280;68944;48.262;14.208;2023-08-07T07:34:30;97986.63;;;12.08;73.29
79481;BME280;68944;48.262;14.208;2023-08-07T07:36:55;97996.78;;;12.11;73.07
79481;BME280;68944;48.262;14.208;2023-08-07T07:39:21;98025.28;;;12.16;72.88
79481;BME280;68944;48.262;14.208;2023-08-07T07:41:46;98012.63;;;12.35;73.15
79481;BME280;68944;48.262;14.208;2023-08-07T07:44:12;98009.69;;;12.20;73.11
79481;BME280;68944;48.262;14.208;2023-08-07T07:46:38;98011.88;;;12.23;72.98
79481;BME280;68944;48.262;14.208;2023-08-07T07:49:03;98009.78;;;12.25;72.77
79481;BME280;68944;48.262;14.208;2023-08-07T07:51:30;98016.38;;;12.22;73.13
79481;BME280;68944;48.262;14.208;2023-08-07T07:53:57;98022.59;;;12.28;73.03
79481;BME280;68944;48.262;14.208;2023-08-07T07:56:23;98022.25;;;12.24;73.22
79481;BME280;68944;48.262;14.208;2023-08-07T07:58:48;98023.25;;;12.35;72.93
79481;BME280;68944;48.262;14.208;2023-08-07T08:01:14;98044.50;;;12.35;72.82
79481;BME280;68944;48.262;14.208;2023-08-07T08:03:39;98032.09;;;12.24;73.09
79481;BME280;68944;48.262;14.208;2023-08-07T08:06:05;98032.88;;;12.24;73.61
79481;BME280;68944;48.262;14.208;2023-08-07T08:08:30;98056.22;;;12.22;73.78
79481;BME280;68944;48.262;14.208;2023-08-07T08:10:56;98054.25;;;12.17;72.48
79481;BME280;68944;48.262;14.208;2023-08-07T08:13:21;98066.50;;;12.19;73.39
79481;BME280;68944;48.262;14.208;2023-08-07T08:15:47;98075.88;;;12.09;73.28
79481;BME280;68944;48.262;14.208;2023-08-07T08:18:13;98049.53;;;12.20;73.71
79481;BME280;68944;48.262;14.208;2023-08-07T08:20:39;98064.28;;;12.27;73.97
79481;BME280;68944;48.262;14.208;2023-08-07T08:23:05;98078.63;;;12.26;73.63
79481;BME280;68944;48.262;14.208;2023-08-07T08:25:31;98064.81;;;12.42;73.15
79481;BME280;68944;48.262;14.208;2023-08-07T08:27:58;98070.84;;;12.37;73.02
79481;BME280;68944;48.262;14.208;2023-08-07T08:30:24;98074.47;;;12.48;73.05
79481;BME280;68944;48.262;14.208;2023-08-07T08:32:50;98079.38;;;12.39;73.17
79481;BME280;68944;48.262;14.208;2023-08-07T08:35:15;98084.78;;;12.44;72.96
79481;BME280;68944;48.262;14.208;2023-08-07T08:37:40;98075.28;;;12.48;73.30
79481;BME280;68944;48.262;14.208;2023-08-07T08:40:08;98102.38;;;12.62;73.03
79481;BME280;68944;48.262;14.208;2023-08-07T08:42:34;98092.59;;;12.51;72.72
79481;BME280;68944;48.262;14.208;2023-08-07T08:45:00;98108.31;;;12.52;73.12
79481;BME280;68944;48.262;14.208;2023-08-07T08:47:29;98102.69;;;12.66;73.09
79481;BME280;68944;48.262;14.208;2023-08-07T08:50:08;98116.75;;;12.49;73.60
79481;BME280;68944;48.262;14.208;2023-08-07T08:52:36;98112.81;;;12.23;74.76
79481;BME280;68944;48.262;14.208;2023-08-07T08:55:03;98130.72;;;12.15;74.36
79481;BME280;68944;48.262;14.208;2023-08-07T08:57:29;98117.53;;;12.09;74.84
79481;BME280;68944;48.262;14.208;2023-08-07T08:59:56;98107.50;;;11.99;75.20
79481;BME280;68944;48.262;14.208;2023-08-07T09:02:22;98136.25;;;11.90;75.69
79481;BME280;68944;48.262;14.208;2023-08-07T09:04:48;98131.19;;;11.88;76.00
79481;BME280;68944;48.262;14.208;2023-08-07T09:07:15;98125.66;;;11.90;76.31
79481;BME280;68944;48.262;14.208;2023-08-07T09:09:42;98127.38;;;11.96;75.40
79481;BME280;68944;48.262;14.208;2023-08-07T09:12:16;98129.69;;;11.92;76.75
79481;BME280;68944;48.262;14.208;2023-08-07T09:14:43;98139.28;;;11.93;76.09
79481;BME280;68944;48.262;14.208;2023-08-07T09:17:10;98140.16;;;12.11;75.99
79481;BME280;68944;48.262;14.208;2023-08-07T09:19:38;98125.44;;;11.91;75.86
79481;BME280;68944;48.262;14.208;2023-08-07T09:22:03;98148.50;;;12.03;76.43
79481;BME280;68944;48.262;14.208;2023-08-07T09:24:29;98146.19;;;12.19;75.37
79481;BME280;68944;48.262;14.208;2023-08-07T09:26:55;98126.78;;;12.06;75.65
79481;BME280;68944;48.262;14.208;2023-08-07T09:29:22;98155.75;;;12.20;75.55
79481;BME280;68944;48.262;14.208;2023-08-07T09:31:47;98159.25;;;11.96;75.51
79481;BME280;68944;48.262;14.208;2023-08-07T09:34:13;98144.47;;;12.12;75.74
79481;BME280;68944;48.262;14.208;2023-08-07T09:36:42;98152.19;;;12.26;76.04
79481;BME280;68944;48.262;14.208;2023-08-07T09:39:08;98160.16;;;12.26;75.20
79481;BME280;68944;48.262;14.208;2023-08-07T09:41:34;98161.53;;;12.28;75.32
79481;BME280;68944;48.262;14.208;2023-08-07T09:44:09;98171.31;;;12.40;75.08
79481;BME280;68944;48.262;14.208;2023-08-07T09:46:43;98175.50;;;12.24;74.74
79481;BME280;68944;48.262;14.208;2023-08-07T09:49:08;98163.00;;;12.24;75.86
79481;BME280;68944;48.262;14.208;2023-08-07T09:51:44;98169.72;;;12.27;74.79
79481;BME280;68944;48.262;14.208;2023-08-07T09:54:10;98191.22;;;12.25;75.18
79481;BME280;68944;48.262;14.208;2023-08-07T09:56:37;98159.91;;;12.27;76.10
79481;BME280;68944;48.262;14.208;2023-08-07T09:59:03;98176.00;;;12.50;75.27
79481;BME280;68944;48.262;14.208;2023-08-07T10:01:29;98178.31;;;12.58;74.08
79481;BME280;68944;48.262;14.208;2023-08-07T10:03:55;98180.59;;;12.67;74.23
79481;BME280;68944;48.262;14.208;2023-08-07T10:06:20;98195.84;;;12.59;74.29
79481;BME280;68944;48.262;14.208;2023-08-07T10:08:46;98188.31;;;12.68;74.54
79481;BME280;68944;48.262;14.208;2023-08-07T10:11:12;98189.50;;;12.60;74.45
79481;BME280;68944;48.262;14.208;2023-08-07T10:13:40;98190.84;;;12.75;74.40
79481;BME280;68944;48.262;14.208;2023-08-07T10:16:06;98190.88;;;12.92;74.34
79481;BME280;68944;48.262;14.208;2023-08-07T10:18:32;98196.63;;;12.72;73.50
79481;BME280;68944;48.262;14.208;2023-08-07T10:20:58;98195.34;;;12.74;74.12
79481;BME280;68944;48.262;14.208;2023-08-07T10:23:25;98205.84;;;12.81;74.39
79481;BME280;68944;48.262;14.208;2023-08-07T10:25:51;98195.94;;;12.77;74.66
79481;BME280;68944;48.262;14.208;2023-08-07T10:28:19;98193.41;;;12.70;74.17
79481;BME280;68944;48.262;14.208;2023-08-07T10:30:45;98216.66;;;12.92;74.44
79481;BME280;68944;48.262;14.208;2023-08-07T10:33:12;98206.41;;;12.83;74.48
79481;BME280;68944;48.262;14.208;2023-08-07T10:35:44;98207.97;;;12.96;74.79
79481;BME280;68944;48.262;14.208;2023-08-07T10:38:10;98207.09;;;12.91;74.48
79481;BME280;68944;48.262;14.208;2023-08-07T10:40:58;98211.53;;;13.02;73.83
79481;BME280;68944;48.262;14.208;2023-08-07T10:43:24;98205.25;;;13.08;73.62
79481;BME280;68944;48.262;14.208;2023-08-07T10:45:50;98203.97;;;13.11;72.99
79481;BME280;68944;48.262;14.208;2023-08-07T10:48:20;98196.50;;;13.25;73.12
79481;BME280;68944;48.262;14.208;2023-08-07T10:50:51;98188.28;;;13.27;72.31
79481;BME280;68944;48.262;14.208;2023-08-07T10:53:30;98203.88;;;13.35;71.88
79481;BME280;68944;48.262;14.208;2023-08-07T10:55:56;98208.53;;;13.45;71.47
79481;BME280;68944;48.262;14.208;2023-08-07T10:58:32;98217.31;;;13.46;71.94
79481;BME280;68944;48.262;14.208;2023-08-07T11:03:57;98206.28;;;13.54;71.06
79481;BME280;68944;48.262;14.208;2023-08-07T11:06:29;98194.44;;;13.62;70.84
79481;BME280;68944;48.262;14.208;2023-08-07T11:08:58;98205.56;;;13.76;70.60
79481;BME280;68944;48.262;14.208;2023-08-07T11:11:24;98199.94;;;13.72;69.98
79481;BME280;68944;48.262;14.208;2023-08-07T11:13:51;98206.22;;;13.83;70.31
79481;BME280;68944;48.262;14.208;2023-08-07T11:16:17;98204.38;;;13.67;69.89
79481;BME280;68944;48.262;14.208;2023-08-07T11:18:47;98200.81;;;13.95;69.74
79481;BME280;68944;48.262;14.208;2023-08-07T11:21:12;98204.66;;;14.05;69.72
79481;BME280;68944;48.262;14.208;2023-08-07T11:23:39;98201.69;;;14.24;69.22
79481;BME280;68944;48.262;14.208;2023-08-07T11:26:05;98203.44;;;14.35;69.34
79481;BME280;68944;48.262;14.208;2023-08-07T11:28:31;98201.81;;;14.56;68.13
79481;BME280;68944;48.262;14.208;2023-08-07T11:30:57;98196.50;;;14.34;67.93
79481;BME280;68944;48.262;14.208;2023-08-07T11:33:27;98213.59;;;14.38;67.71
79481;BME280;68944;48.262;14.208;2023-08-07T11:35:53;98195.31;;;14.25;67.94
79481;BME280;68944;48.262;14.208;2023-08-07T11:40:59;98202.84;;;14.28;68.11
79481;BME280;68944;48.262;14.208;2023-08-07T11:43:27;98211.31;;;14.25;68.58
79481;BME280;68944;48.262;14.208;2023-08-07T11:45:53;98223.16;;;14.34;68.17
79481;BME280;68944;48.262;14.208;2023-08-07T11:48:19;98206.88;;;14.30;67.20
79481;BME280;68944;48.262;14.208;2023-08-07T11:50:45;98213.00;;;14.53;67.28
79481;BME280;68944;48.262;14.208;2023-08-07T11:53:10;98212.19;;;14.53;66.99
79481;BME280;68944;48.262;14.208;2023-08-07T11:55:36;98225.56;;;14.36;66.21
79481;BME280;68944;48.262;14.208;2023-08-07T11:58:04;98218.31;;;14.31;67.00
79481;BME280;68944;48.262;14.208;2023-08-07T12:00:31;98231.44;;;14.38;67.75
79481;BME280;68944;48.262;14.208;2023-08-07T12:02:56;98218.19;;;14.43;67.78
79481;BME280;68944;48.262;14.208;2023-08-07T12:05:22;98231.44;;;14.38;68.65
79481;BME280;68944;48.262;14.208;2023-08-07T12:07:49;98228.13;;;14.48;68.84
79481;BME280;68944;48.262;14.208;2023-08-07T12:10:14;98225.53;;;14.53;68.69
79481;BME280;68944;48.262;14.208;2023-08-07T12:12:42;98230.09;;;14.58;68.96
79481;BME280;68944;48.262;14.208;2023-08-07T12:15:08;98237.19;;;14.47;69.36
79481;BME280;68944;48.262;14.208;2023-08-07T12:17:38;98238.66;;;14.37;70.12
79481;BME280;68944;48.262;14.208;2023-08-07T12:20:05;98242.84;;;14.33;71.08
79481;BME280;68944;48.262;14.208;2023-08-07T12:22:36;98240.53;;;14.19;71.41
79481;BME280;68944;48.262;14.208;2023-08-07T12:25:02;98250.63;;;14.17;71.71
79481;BME280;68944;48.262;14.208;2023-08-07T12:27:28;98239.91;;;14.12;71.90
79481;BME280;68944;48.262;14.208;2023-08-07T12:29:53;98243.41;;;14.35;71.90
79481;BME280;68944;48.262;14.208;2023-08-07T12:32:19;98240.13;;;14.28;72.22
79481;BME280;68944;48.262;14.208;2023-08-07T12:34:44;98256.13;;;14.28;72.25
79481;BME280;68944;48.262;14.208;2023-08-07T12:37:10;98246.66;;;14.37;71.72
79481;BME280;68944;48.262;14.208;2023-08-07T12:39:35;98244.66;;;14.50;71.34
79481;BME280;68944;48.262;14.208;2023-08-07T12:42:01;98249.13;;;14.66;71.71
79481;BME280;68944;48.262;14.208;2023-08-07T12:44:28;98239.53;;;14.43;70.77
79481;BME280;68944;48.262;14.208;2023-08-07T12:46:54;98235.66;;;14.56;71.26
79481;BME280;68944;48.262;14.208;2023-08-07T12:49:19;98238.84;;;14.30;71.93
79481;BME280;68944;48.262;14.208;2023-08-07T12:51:44;98245.34;;;14.40;71.76
79481;BME280;68944;48.262;14.208;2023-08-07T12:54:10;98248.69;;;14.30;71.91
79481;BME280;68944;48.262;14.208;2023-08-07T12:56:35;98252.09;;;14.25;72.27
79481;BME280;68944;48.262;14.208;2023-08-07T12:59:01;98260.66;;;14.10;72.87
79481;BME280;68944;48.262;14.208;2023-08-07T13:01:27;98259.41;;;14.35;73.08
79481;BME280;68944;48.262;14.208;2023-08-07T13:03:52;98253.88;;;14.19;73.01
79481;BME280;68944;48.262;14.208;2023-08-07T13:06:18;98259.47;;;14.40;72.94